Dayville, Indiana
Current Conditions -  °F | °C
As of 11:54 PM on Tuesday 25 Nov 2014 (Local Time) from KEVV Reporting Station
Clear Clear  
Wind Chill: 29°   Ceiling: Unl
Heat Index: 29°   Visibility: 10mi
Dew Point: 24°   Wind: 0mph
Humidity: 82%   Direction: NA
Pressure: 30.19"   Gusts: NA
Location:  37.9629°N, 87.3632°W
Report Text: KEVV 260554Z AUTO 00000KT 10SM CLR M02/M04 A3019 RMK AO2 SLP229 T10171044 10011 21022 400561022 58007
Loading
Personal Weather Stations






























Interactive Weather Map New forecast layout! Learn more

10-Day Weather Forecast

Advertisements
Track Severe Weather on mobile